createdAt,value
2023-05-04T00:00:24.766Z,16.42
2023-05-04T00:01:26.844Z,16.43
2023-05-04T00:02:23.874Z,16.39
2023-05-04T00:03:23.874Z,16.35
2023-05-04T00:04:23.882Z,16.36
2023-05-04T00:05:24.629Z,16.35
2023-05-04T00:06:24.079Z,16.34
2023-05-04T00:07:23.684Z,16.30
2023-05-04T00:08:24.108Z,16.30
2023-05-04T00:09:23.563Z,16.28
2023-05-04T00:10:23.886Z,16.26
2023-05-04T00:11:24.294Z,16.25
2023-05-04T00:12:23.534Z,16.23
2023-05-04T00:13:23.928Z,16.20
2023-05-04T00:14:24.164Z,16.15
2023-05-04T00:15:23.749Z,16.14
2023-05-04T00:16:23.729Z,16.09
2023-05-04T00:17:24.176Z,16.08
2023-05-04T00:18:23.771Z,16.06
2023-05-04T00:19:23.966Z,16.02
2023-05-04T00:20:23.591Z,16.02
2023-05-04T00:21:23.656Z,15.97
2023-05-04T00:22:23.776Z,15.94
2023-05-04T00:23:23.874Z,15.93
2023-05-04T00:24:23.987Z,15.92
2023-05-04T00:25:23.825Z,15.94
2023-05-04T00:26:24.135Z,15.94
2023-05-04T00:27:23.679Z,15.93
2023-05-04T00:28:24.193Z,15.91
2023-05-04T00:29:23.925Z,15.90
2023-05-04T00:30:23.851Z,15.89
2023-05-04T00:31:23.834Z,15.89
2023-05-04T00:32:24.193Z,15.89
2023-05-04T00:33:23.694Z,15.88
2023-05-04T00:34:23.636Z,15.87
2023-05-04T00:35:23.873Z,15.87
2023-05-04T00:36:24.108Z,15.86
2023-05-04T00:37:23.784Z,15.85
2023-05-04T00:38:24.132Z,15.83
2023-05-04T00:39:24.120Z,15.82
2023-05-04T00:40:23.845Z,15.82
2023-05-04T00:41:23.919Z,15.81
2023-05-04T00:42:24.246Z,15.78
2023-05-04T00:43:23.585Z,15.77
2023-05-04T00:44:24.190Z,15.74
2023-05-04T00:45:24.096Z,15.71
2023-05-04T00:46:23.796Z,15.70
2023-05-04T00:47:24.385Z,15.65
2023-05-04T00:48:23.799Z,15.63
2023-05-04T00:49:23.867Z,15.60
2023-05-04T00:50:24.243Z,15.59
2023-05-04T00:51:23.962Z,15.57
2023-05-04T00:52:23.951Z,15.53
2023-05-04T00:53:23.820Z,15.53
2023-05-04T00:54:23.932Z,15.51
2023-05-04T00:55:24.016Z,15.52
2023-05-04T00:56:24.001Z,15.48
2023-05-04T00:57:24.325Z,15.47
2023-05-04T00:58:23.704Z,15.46
2023-05-04T00:59:24.088Z,15.45
2023-05-04T01:00:24.424Z,15.39
2023-05-04T01:01:24.034Z,15.39
2023-05-04T01:02:24.169Z,15.36
2023-05-04T01:03:23.841Z,15.34
2023-05-04T01:04:23.539Z,15.33
2023-05-04T01:05:24.030Z,15.29
2023-05-04T01:06:23.819Z,15.27
2023-05-04T01:07:23.945Z,15.27
2023-05-04T01:08:24.134Z,15.26
2023-05-04T01:09:23.560Z,15.22
2023-05-04T01:10:24.029Z,15.21
2023-05-04T01:11:24.135Z,15.14
2023-05-04T01:12:23.469Z,15.13
2023-05-04T01:13:23.785Z,15.09
2023-05-04T01:14:24.000Z,15.07
2023-05-04T01:15:24.305Z,15.06
2023-05-04T01:16:23.759Z,15.04
2023-05-04T01:17:24.343Z,15.00
2023-05-04T01:18:23.945Z,15.01
2023-05-04T01:19:24.224Z,15.02
2023-05-04T01:20:23.916Z,15.01
2023-05-04T01:21:24.504Z,15.02
2023-05-04T01:22:23.925Z,14.99
2023-05-04T01:23:24.018Z,14.98
2023-05-04T01:24:24.203Z,14.96
2023-05-04T01:25:23.777Z,14.94
2023-05-04T01:26:24.060Z,14.92
2023-05-04T01:27:23.756Z,14.90
2023-05-04T01:28:24.240Z,14.88
2023-05-04T01:29:24.007Z,14.88
2023-05-04T01:30:23.809Z,14.87
2023-05-04T01:31:23.937Z,14.88
2023-05-04T01:32:23.438Z,14.86
2023-05-04T01:33:23.787Z,14.85
2023-05-04T01:34:23.835Z,14.86
2023-05-04T01:35:23.671Z,14.83
2023-05-04T01:36:23.680Z,14.77
2023-05-04T01:37:23.557Z,14.77
2023-05-04T01:38:23.661Z,14.78
2023-05-04T01:39:23.617Z,14.77
2023-05-04T01:40:23.649Z,14.76
2023-05-04T01:41:23.868Z,14.77
2023-05-04T01:42:23.854Z,14.77
2023-05-04T01:43:23.679Z,14.80
2023-05-04T01:44:23.606Z,14.79
2023-05-04T01:45:23.940Z,14.77
2023-05-04T01:46:24.289Z,14.73
2023-05-04T01:47:23.779Z,14.69
2023-05-04T01:48:23.756Z,14.68
2023-05-04T01:49:23.853Z,14.63
2023-05-04T01:50:24.235Z,14.63
2023-05-04T01:51:23.601Z,14.61
2023-05-04T01:52:23.821Z,14.59
2023-05-04T01:53:23.829Z,14.57
2023-05-04T01:54:23.711Z,14.57
2023-05-04T01:55:24.121Z,14.57
2023-05-04T01:56:23.730Z,14.56
2023-05-04T01:57:24.204Z,14.54
2023-05-04T01:58:24.000Z,14.51
2023-05-04T01:59:23.992Z,14.47
2023-05-04T02:00:24.913Z,14.47
2023-05-04T02:01:23.673Z,14.41
2023-05-04T02:02:23.790Z,14.39
2023-05-04T02:03:24.078Z,14.37
2023-05-04T02:04:23.576Z,14.36
2023-05-04T02:05:24.036Z,14.32
2023-05-04T02:06:24.083Z,14.34
2023-05-04T02:07:24.147Z,14.34
2023-05-04T02:08:23.437Z,14.32
2023-05-04T02:09:23.642Z,14.31
2023-05-04T02:10:24.002Z,14.29
2023-05-04T02:11:24.038Z,14.25
2023-05-04T02:12:23.928Z,14.24
2023-05-04T02:13:24.003Z,14.23
2023-05-04T02:14:23.955Z,14.22
2023-05-04T02:15:24.601Z,14.20
2023-05-04T02:16:24.088Z,14.19
2023-05-04T02:17:23.826Z,14.17
2023-05-04T02:18:23.882Z,14.18
2023-05-04T02:19:23.896Z,14.16
2023-05-04T02:20:23.445Z,14.17
2023-05-04T02:21:23.666Z,14.16
2023-05-04T02:22:24.019Z,14.14
2023-05-04T02:23:23.940Z,14.15
2023-05-04T02:24:23.994Z,14.13
2023-05-04T02:25:23.654Z,14.12
2023-05-04T02:26:23.905Z,14.07
2023-05-04T02:27:23.910Z,14.06
2023-05-04T02:28:24.105Z,14.03
2023-05-04T02:29:23.407Z,14.05
2023-05-04T02:30:23.813Z,14.06
2023-05-04T02:31:23.786Z,14.06
2023-05-04T02:32:23.978Z,14.05
2023-05-04T02:33:23.365Z,14.07
2023-05-04T02:34:23.634Z,14.03
2023-05-04T02:35:23.946Z,14.02
2023-05-04T02:36:23.725Z,13.98
2023-05-04T02:37:23.757Z,13.96
2023-05-04T02:38:23.726Z,13.93
2023-05-04T02:39:24.116Z,13.93
2023-05-04T02:40:23.619Z,13.90
2023-05-04T02:41:23.978Z,13.89
2023-05-04T02:42:23.948Z,13.90
2023-05-04T02:43:23.981Z,13.89
2023-05-04T02:44:24.166Z,13.88
2023-05-04T02:45:23.902Z,13.89
2023-05-04T02:46:24.255Z,13.86
2023-05-04T02:47:23.696Z,13.86
2023-05-04T02:48:24.641Z,13.83
2023-05-04T02:49:24.020Z,13.87
2023-05-04T02:50:23.565Z,13.85
2023-05-04T02:51:23.959Z,13.84
2023-05-04T02:52:23.723Z,13.83
2023-05-04T02:53:23.986Z,13.86
2023-05-04T02:54:24.299Z,13.85
2023-05-04T02:55:24.042Z,13.85
2023-05-04T02:57:27.253Z,13.82
2023-05-04T02:58:24.187Z,13.83
2023-05-04T02:59:23.409Z,13.81
2023-05-04T03:00:24.819Z,13.81
2023-05-04T03:01:23.653Z,13.79
2023-05-04T03:02:24.053Z,13.78
2023-05-04T03:03:23.606Z,13.77
2023-05-04T03:04:23.888Z,13.76
2023-05-04T03:05:23.757Z,13.74
2023-05-04T03:06:23.762Z,13.72
2023-05-04T03:07:24.117Z,13.71
2023-05-04T03:08:23.428Z,13.69
2023-05-04T03:09:23.678Z,13.69
2023-05-04T03:10:24.110Z,13.67
2023-05-04T03:11:23.399Z,13.65
2023-05-04T03:12:23.913Z,13.63
2023-05-04T03:13:23.498Z,13.62
2023-05-04T03:14:23.759Z,13.60
2023-05-04T03:15:24.591Z,13.60
2023-05-04T03:16:24.279Z,13.56
2023-05-04T03:17:24.401Z,13.55
2023-05-04T03:18:23.786Z,13.54
2023-05-04T03:19:23.452Z,13.52
2023-05-04T03:20:23.935Z,13.52
2023-05-04T03:21:24.005Z,13.5
2023-05-04T03:22:23.910Z,13.51
2023-05-04T03:23:23.862Z,13.45
2023-05-04T03:24:23.785Z,13.43
2023-05-04T03:25:23.887Z,13.46
2023-05-04T03:26:23.879Z,13.45
2023-05-04T03:27:23.946Z,13.44
2023-05-04T03:28:23.725Z,13.43
2023-05-04T03:29:23.707Z,13.45
2023-05-04T03:30:24.036Z,13.46
2023-05-04T03:31:24.040Z,13.44
2023-05-04T03:32:23.328Z,13.44
2023-05-04T03:33:23.541Z,13.43
2023-05-04T03:34:23.924Z,13.43
2023-05-04T03:35:25.250Z,13.44
2023-05-04T03:36:23.682Z,13.42
2023-05-04T03:37:23.524Z,13.40
2023-05-04T03:38:23.665Z,13.38
2023-05-04T03:39:24.041Z,13.36
2023-05-04T03:40:23.565Z,13.32
2023-05-04T03:41:23.908Z,13.31
2023-05-04T03:42:24.044Z,13.31
2023-05-04T03:43:23.393Z,13.30
2023-05-04T03:44:23.597Z,13.29
2023-05-04T03:45:24.371Z,13.26
2023-05-04T03:46:23.822Z,13.24
2023-05-04T03:47:23.313Z,13.24
2023-05-04T03:48:23.717Z,13.23
2023-05-04T03:49:28.934Z,13.23
2023-05-04T03:50:24.110Z,13.23
2023-05-04T03:51:23.638Z,13.22
2023-05-04T03:52:24.127Z,13.19
2023-05-04T03:53:23.740Z,13.19
2023-05-04T03:54:24.318Z,13.19
2023-05-04T03:55:24.450Z,13.20
2023-05-04T03:56:24.160Z,13.19
2023-05-04T03:57:23.854Z,13.18
2023-05-04T03:58:24.394Z,13.13
2023-05-04T03:59:23.735Z,13.12
2023-05-04T04:00:25.028Z,13.09
2023-05-04T04:01:23.856Z,13.08
2023-05-04T04:02:23.680Z,13.08
2023-05-04T04:03:24.097Z,13.06
2023-05-04T04:04:23.959Z,13.06
2023-05-04T04:05:23.817Z,13.03
2023-05-04T04:06:24.338Z,13.03
2023-05-04T04:07:24.106Z,13.04
2023-05-04T04:08:23.893Z,13.02
2023-05-04T04:09:24.496Z,13.02
2023-05-04T04:10:24.285Z,13.02
2023-05-04T04:11:23.747Z,13.03
2023-05-04T04:12:23.905Z,13.03
2023-05-04T04:13:23.603Z,13.05
2023-05-04T04:14:24.088Z,13.06
2023-05-04T04:15:24.136Z,13.06
2023-05-04T04:16:23.756Z,13.05
2023-05-04T04:17:23.500Z,13.06
2023-05-04T04:18:23.899Z,13.04
2023-05-04T04:19:24.405Z,13.04
2023-05-04T04:20:24.056Z,13.05
2023-05-04T04:21:23.569Z,13.06
2023-05-04T04:22:23.912Z,13.05
2023-05-04T04:23:24.229Z,13.06
2023-05-04T04:24:23.820Z,13.06
2023-05-04T04:25:24.473Z,13.07
2023-05-04T04:26:24.261Z,13.06
2023-05-04T04:27:24.157Z,13.09
2023-05-04T04:28:23.738Z,13.10
2023-05-04T04:29:24.156Z,13.15
2023-05-04T04:30:24.279Z,13.13
2023-05-04T04:31:24.018Z,13.14
2023-05-04T04:32:23.826Z,13.15
2023-05-04T04:33:24.337Z,13.17
2023-05-04T04:34:23.995Z,13.15
2023-05-04T04:35:23.940Z,13.17
2023-05-04T04:36:23.782Z,13.17
2023-05-04T04:37:24.242Z,13.17
2023-05-04T04:38:24.015Z,13.17
2023-05-04T04:39:24.354Z,13.19
2023-05-04T04:40:24.179Z,13.21
2023-05-04T04:41:24.029Z,13.22
2023-05-04T04:42:23.902Z,13.22
2023-05-04T04:43:24.244Z,13.25
2023-05-04T04:44:23.750Z,13.25
2023-05-04T04:45:24.618Z,13.27
2023-05-04T04:46:24.353Z,13.31
2023-05-04T04:47:24.180Z,13.31
2023-05-04T04:48:24.061Z,13.32
2023-05-04T04:49:24.159Z,13.34
2023-05-04T04:50:24.296Z,13.38
2023-05-04T04:51:24.289Z,13.41
2023-05-04T04:52:24.438Z,13.43
2023-05-04T04:53:24.489Z,13.47
2023-05-04T04:54:24.066Z,13.49
2023-05-04T04:55:23.974Z,13.53
2023-05-04T04:56:23.751Z,13.58
2023-05-04T04:57:23.771Z,13.62
2023-05-04T04:58:24.368Z,13.68
2023-05-04T04:59:24.329Z,13.72
2023-05-04T05:00:25.225Z,13.77
2023-05-04T05:01:24.627Z,13.81
2023-05-04T05:02:23.916Z,13.84
2023-05-04T05:03:23.838Z,13.90
2023-05-04T05:04:24.019Z,13.93
2023-05-04T05:05:23.992Z,13.97
2023-05-04T05:06:23.598Z,14.00
2023-05-04T05:07:24.281Z,14.07
2023-05-04T05:08:24.175Z,14.15
2023-05-04T05:09:24.055Z,14.22
2023-05-04T05:10:24.403Z,14.26
2023-05-04T05:11:24.188Z,14.33
2023-05-04T05:12:23.721Z,14.40
2023-05-04T05:13:24.374Z,14.47
2023-05-04T05:14:24.423Z,14.56
2023-05-04T05:15:24.721Z,14.62
2023-05-04T05:16:24.479Z,14.71
2023-05-04T05:17:24.466Z,14.77
2023-05-04T05:18:24.284Z,14.78
2023-05-04T05:19:23.841Z,14.77
2023-05-04T05:20:23.805Z,14.84
2023-05-04T05:21:23.889Z,14.92
2023-05-04T05:22:24.461Z,15.01
2023-05-04T05:23:24.074Z,15.11
2023-05-04T05:24:23.891Z,15.23
2023-05-04T05:25:24.140Z,15.31
2023-05-04T05:26:24.007Z,15.42
2023-05-04T05:27:23.941Z,15.54
2023-05-04T05:28:23.604Z,15.65
2023-05-04T05:29:24.007Z,15.76
2023-05-04T05:30:24.525Z,15.91
2023-05-04T05:31:24.091Z,16.02
2023-05-04T05:32:24.283Z,16.11
2023-05-04T05:33:24.480Z,16.14
2023-05-04T05:34:24.170Z,16.18
2023-05-04T05:35:24.129Z,16.15
2023-05-04T05:36:24.027Z,16.15
2023-05-04T05:37:23.752Z,16.20
2023-05-04T05:38:24.578Z,16.22
2023-05-04T05:39:24.611Z,16.24
2023-05-04T05:40:24.473Z,16.27
2023-05-04T05:41:24.177Z,16.31
2023-05-04T05:42:23.848Z,16.36
2023-05-04T05:43:24.380Z,16.39
2023-05-04T05:44:24.135Z,16.47
2023-05-04T05:45:24.226Z,16.51
2023-05-04T05:46:24.192Z,16.55
2023-05-04T05:47:24.401Z,16.60
2023-05-04T05:48:23.656Z,16.65
2023-05-04T05:49:24.386Z,16.71
2023-05-04T05:50:24.568Z,16.78
2023-05-04T05:51:24.599Z,16.78
2023-05-04T05:52:24.164Z,16.81
2023-05-04T05:53:23.887Z,16.87
2023-05-04T05:54:23.704Z,16.94
2023-05-04T05:55:24.791Z,16.98
2023-05-04T05:56:24.326Z,17.04
2023-05-04T05:57:24.098Z,17.07
2023-05-04T05:58:24.158Z,17.14
2023-05-04T05:59:24.129Z,17.20
2023-05-04T06:00:25.256Z,17.26
2023-05-04T06:01:24.449Z,17.37
2023-05-04T06:02:24.442Z,17.48
2023-05-04T06:03:24.360Z,17.57
2023-05-04T06:04:24.338Z,17.69
2023-05-04T06:05:24.611Z,17.71
2023-05-04T06:06:24.427Z,17.78
2023-05-04T06:07:24.361Z,17.87
2023-05-04T06:08:24.244Z,18.02
2023-05-04T06:09:24.209Z,18.14
2023-05-04T06:10:24.227Z,18.29
2023-05-04T06:11:26.185Z,18.38
2023-05-04T06:12:24.207Z,18.45
2023-05-04T06:13:24.036Z,18.53
2023-05-04T06:14:24.427Z,18.63
2023-05-04T06:15:24.459Z,18.71
2023-05-04T06:16:24.271Z,18.76
2023-05-04T06:17:24.500Z,18.83
2023-05-04T06:18:24.436Z,18.94
2023-05-04T06:19:23.947Z,19.06
2023-05-04T06:20:24.337Z,19.18
2023-05-04T06:21:24.677Z,19.27
2023-05-04T06:22:23.786Z,19.39
2023-05-04T06:23:23.854Z,19.47
2023-05-04T06:24:24.295Z,19.55
2023-05-04T06:25:24.273Z,19.64
2023-05-04T06:26:23.975Z,19.75
2023-05-04T06:27:24.423Z,19.88
2023-05-04T06:28:24.117Z,19.98
2023-05-04T06:29:23.691Z,20.03
2023-05-04T06:30:24.668Z,20.12
2023-05-04T06:31:23.883Z,20.22
2023-05-04T06:32:23.917Z,20.31
2023-05-04T06:33:23.876Z,20.39
2023-05-04T06:34:23.452Z,20.47
2023-05-04T06:35:24.511Z,20.54
2023-05-04T06:36:24.099Z,20.60
2023-05-04T06:37:23.719Z,20.68
2023-05-04T06:38:24.408Z,20.68
2023-05-04T06:39:24.251Z,20.77
2023-05-04T06:40:24.398Z,20.79
2023-05-04T06:41:24.188Z,20.79
2023-05-04T06:42:23.855Z,20.82
2023-05-04T06:43:23.807Z,20.88
2023-05-04T06:44:24.288Z,20.86
2023-05-04T06:45:24.328Z,20.85
2023-05-04T06:46:24.221Z,20.88
2023-05-04T06:47:24.379Z,20.89
2023-05-04T06:48:24.709Z,20.94
2023-05-04T06:49:23.743Z,20.93
2023-05-04T06:50:24.595Z,20.95
2023-05-04T06:51:24.330Z,20.95
2023-05-04T06:52:24.039Z,21.12
2023-05-04T06:53:23.731Z,21.06
2023-05-04T06:54:24.499Z,21.01
2023-05-04T06:55:24.510Z,20.97
2023-05-04T06:56:24.368Z,20.96
2023-05-04T06:57:24.256Z,20.97
2023-05-04T06:58:24.245Z,20.98
2023-05-04T06:59:23.932Z,20.95
2023-05-04T07:00:24.629Z,20.92
2023-05-04T07:01:24.726Z,20.89
2023-05-04T07:02:23.752Z,20.90
2023-05-04T07:03:24.074Z,20.88
2023-05-04T07:04:24.030Z,20.92
2023-05-04T07:05:24.401Z,20.92
2023-05-04T07:06:46.421Z,20.94
2023-05-04T07:07:24.690Z,20.97
2023-05-04T07:09:28.363Z,20.98
2023-05-04T07:10:24.337Z,20.98
2023-05-04T07:11:24.409Z,20.98
2023-05-04T07:12:24.361Z,20.97
2023-05-04T07:13:24.670Z,20.99
2023-05-04T07:14:23.883Z,21.01
2023-05-04T07:15:24.565Z,21.01
2023-05-04T07:16:24.721Z,21.02
2023-05-04T07:17:23.915Z,21.06
2023-05-04T07:18:24.125Z,21.07
2023-05-04T07:19:24.053Z,21.07
2023-05-04T07:20:26.124Z,21.11
2023-05-04T07:21:28.485Z,21.15
2023-05-04T07:22:24.350Z,21.21
2023-05-04T07:23:24.360Z,21.29
2023-05-04T07:24:24.474Z,21.28
2023-05-04T07:25:24.420Z,21.29
2023-05-04T07:26:24.172Z,21.36
2023-05-04T07:27:23.786Z,21.40
2023-05-04T07:28:23.844Z,21.52
2023-05-04T07:29:23.804Z,21.48
2023-05-04T07:30:24.845Z,21.46
2023-05-04T07:31:23.813Z,21.37
2023-05-04T07:32:23.707Z,21.36
2023-05-04T07:33:23.760Z,21.40
2023-05-04T07:34:33.918Z,21.47
2023-05-04T07:35:24.948Z,21.49
2023-05-04T07:36:24.470Z,21.44
2023-05-04T07:37:24.584Z,21.41
2023-05-04T07:38:24.402Z,21.40
2023-05-04T07:39:23.829Z,21.44
2023-05-04T07:40:24.130Z,21.45
2023-05-04T07:41:23.868Z,21.59
2023-05-04T07:42:23.820Z,21.62
2023-05-04T07:43:24.577Z,21.60
2023-05-04T07:44:24.197Z,21.58
2023-05-04T07:45:24.393Z,21.58
2023-05-04T07:46:24.317Z,21.59
2023-05-04T07:47:24.784Z,21.59
2023-05-04T07:48:26.344Z,21.64
2023-05-04T07:49:24.355Z,21.72
2023-05-04T07:50:24.574Z,21.74
2023-05-04T07:51:24.025Z,21.82
2023-05-04T07:52:23.932Z,21.82
2023-05-04T07:53:23.786Z,21.76
2023-05-04T07:54:23.750Z,21.82
2023-05-04T07:55:24.355Z,21.84
2023-05-04T07:56:24.242Z,21.92
2023-05-04T07:57:24.225Z,21.88
2023-05-04T07:58:24.441Z,21.96
2023-05-04T07:59:24.401Z,22.21
2023-05-04T08:00:25.420Z,22.02
2023-05-04T08:01:24.513Z,21.93
2023-05-04T08:02:24.284Z,21.93
2023-05-04T08:03:24.396Z,21.96
2023-05-04T08:04:24.208Z,21.96
2023-05-04T08:05:24.885Z,22.02
2023-05-04T08:06:24.233Z,22.07
2023-05-04T08:07:23.969Z,22.10
2023-05-04T08:08:24.863Z,22.14
2023-05-04T08:09:23.913Z,22.21
2023-05-04T08:10:24.153Z,22.23
2023-05-04T08:11:24.087Z,22.29
2023-05-04T08:12:24.020Z,22.31
2023-05-04T08:13:23.946Z,22.57
2023-05-04T08:14:23.857Z,22.55
2023-05-04T08:15:23.760Z,22.52
2023-05-04T08:16:23.808Z,22.54
2023-05-04T08:17:23.930Z,22.55
2023-05-04T08:18:23.922Z,22.58
2023-05-04T08:19:23.813Z,22.55
2023-05-04T08:20:24.197Z,22.56
2023-05-04T08:21:23.872Z,22.64
2023-05-04T08:22:23.805Z,22.60
2023-05-04T08:23:24.499Z,22.59
2023-05-04T08:24:24.176Z,22.57
2023-05-04T08:25:24.200Z,22.67
2023-05-04T08:26:24.033Z,22.76
2023-05-04T08:27:23.731Z,22.80
2023-05-04T08:28:24.526Z,22.89
2023-05-04T08:29:24.314Z,23.05
2023-05-04T08:30:24.633Z,23.17
2023-05-04T08:31:23.628Z,23.23
2023-05-04T08:32:24.522Z,23.22
2023-05-04T08:33:24.351Z,23.15
2023-05-04T08:34:23.942Z,23.21
2023-05-04T08:35:23.915Z,23.20
2023-05-04T08:36:23.741Z,23.25
2023-05-04T08:37:24.320Z,23.24
2023-05-04T08:38:24.338Z,23.28
2023-05-04T08:39:24.066Z,23.28
2023-05-04T08:40:23.989Z,23.29
2023-05-04T08:41:23.745Z,23.36
2023-05-04T08:42:24.527Z,23.36
2023-05-04T08:43:24.283Z,23.42
2023-05-04T08:44:23.877Z,23.60
2023-05-04T08:45:24.418Z,23.58
2023-05-04T08:46:24.491Z,23.53
2023-05-04T08:47:24.489Z,23.59
2023-05-04T08:48:24.616Z,23.60
2023-05-04T08:49:24.617Z,23.59
2023-05-04T08:50:24.679Z,23.74
2023-05-04T08:51:24.587Z,23.69
2023-05-04T08:52:24.484Z,23.67
2023-05-04T08:53:32.255Z,23.71
2023-05-04T08:54:24.255Z,23.76
2023-05-04T08:55:24.501Z,23.78
2023-05-04T08:56:24.419Z,23.77
2023-05-04T08:57:24.248Z,23.86
2023-05-04T08:58:24.198Z,23.93
2023-05-04T08:59:24.015Z,23.85
2023-05-04T09:00:24.634Z,23.90
2023-05-04T09:01:38.380Z,24.01
2023-05-04T09:02:24.457Z,24.11
2023-05-04T09:03:24.495Z,24.16
2023-05-04T09:04:24.728Z,24.24
2023-05-04T09:05:24.528Z,24.28
2023-05-04T09:06:24.324Z,24.34
2023-05-04T09:07:37.986Z,24.40
2023-05-04T09:08:23.765Z,24.45
2023-05-04T09:09:24.589Z,24.52
2023-05-04T09:10:24.359Z,24.55
2023-05-04T09:11:24.198Z,24.60
2023-05-04T09:12:24.171Z,24.72
2023-05-04T09:13:24.019Z,24.87
2023-05-04T09:14:23.540Z,24.94
2023-05-04T09:15:24.446Z,25
2023-05-04T09:16:24.137Z,25.06
2023-05-04T09:17:24.027Z,25.07
2023-05-04T09:18:24.563Z,25.14
2023-05-04T09:19:24.161Z,25.31
2023-05-04T09:20:24.267Z,25.39
2023-05-04T09:21:24.235Z,25.40
2023-05-04T09:22:23.907Z,25.45
2023-05-04T09:23:23.983Z,25.51
2023-05-04T09:24:24.111Z,25.53
2023-05-04T09:25:24.042Z,25.66
2023-05-04T09:26:23.792Z,25.78
2023-05-04T09:27:24.445Z,25.86
2023-05-04T09:28:24.143Z,26
2023-05-04T09:29:24.069Z,26.12
2023-05-04T09:30:24.589Z,26.22
2023-05-04T09:31:24.485Z,26.32
2023-05-04T09:32:24.442Z,26.46
2023-05-04T09:33:24.266Z,26.57
2023-05-04T09:34:23.736Z,26.74
2023-05-04T09:35:32.365Z,26.83
2023-05-04T09:36:23.781Z,26.93
2023-05-04T09:37:23.854Z,27.05
2023-05-04T09:38:24.084Z,27.11
2023-05-04T09:39:23.848Z,27.21
2023-05-04T09:40:23.944Z,27.27
2023-05-04T09:41:23.726Z,27.31
2023-05-04T09:42:24.282Z,27.32
2023-05-04T09:43:23.926Z,27.44
2023-05-04T09:44:24.087Z,27.59
2023-05-04T09:45:24.254Z,27.58
2023-05-04T09:46:24.617Z,27.56
2023-05-04T09:47:24.023Z,27.57
2023-05-04T09:48:24.122Z,27.59
2023-05-04T09:49:24.152Z,27.71
2023-05-04T09:50:24.719Z,27.79
2023-05-04T09:51:24.074Z,27.80
2023-05-04T09:52:24.154Z,27.86
2023-05-04T09:53:24.218Z,27.90
2023-05-04T09:54:24.326Z,27.82
2023-05-04T09:55:24.472Z,27.86
2023-05-04T09:56:24.564Z,27.90
2023-05-04T09:57:24.522Z,27.98
2023-05-04T09:58:24.468Z,28.07
2023-05-04T09:59:24.229Z,28.04
2023-05-04T10:00:24.923Z,28.09
2023-05-04T10:01:23.827Z,28.09
2023-05-04T10:02:24.105Z,28.12
2023-05-04T10:03:24.322Z,28.14
2023-05-04T10:04:24.127Z,28.18
2023-05-04T10:05:24.399Z,28.22
2023-05-04T10:06:24.370Z,28.26
2023-05-04T10:07:24.307Z,28.28
2023-05-04T10:08:24.100Z,28.26
2023-05-04T10:09:23.925Z,28.46
2023-05-04T10:10:23.956Z,28.55
2023-05-04T10:11:24.135Z,28.45
2023-05-04T10:12:23.913Z,28.45
2023-05-04T10:13:24.084Z,28.60
2023-05-04T10:14:24.136Z,28.73
2023-05-04T10:16:28.225Z,28.68
2023-05-04T10:17:24.188Z,28.70
2023-05-04T10:18:24.140Z,28.73
2023-05-04T10:19:24.490Z,28.70
2023-05-04T10:20:24.796Z,28.67
2023-05-04T10:21:24.222Z,28.74
2023-05-04T10:22:23.955Z,28.73
2023-05-04T10:23:24.176Z,28.75
2023-05-04T10:24:23.944Z,28.72
2023-05-04T10:25:23.906Z,28.72
2023-05-04T10:26:23.767Z,28.71
2023-05-04T10:27:24.451Z,28.78
2023-05-04T10:28:24.243Z,28.98
2023-05-04T10:29:24.244Z,28.97
2023-05-04T10:30:24.183Z,29.01
2023-05-04T10:31:23.883Z,29.07
2023-05-04T10:32:23.760Z,29.13
2023-05-04T10:33:23.842Z,29.14
2023-05-04T10:34:24.412Z,29.12
2023-05-04T10:35:24.296Z,29.08
2023-05-04T10:36:24.317Z,29.11
2023-05-04T10:37:23.927Z,28.94
2023-05-04T10:38:23.561Z,28.88
2023-05-04T10:39:24.662Z,28.88
2023-05-04T10:40:24.170Z,28.94
2023-05-04T10:41:23.916Z,29.02
2023-05-04T10:42:24.023Z,29.07
2023-05-04T10:43:24.527Z,29.17
2023-05-04T10:44:23.970Z,29.34
2023-05-04T10:45:24.293Z,29.38
2023-05-04T10:46:24.299Z,29.37
2023-05-04T10:47:24.082Z,29.33
2023-05-04T10:48:23.753Z,29.36
2023-05-04T10:49:24.019Z,29.37
2023-05-04T10:50:24.458Z,29.36
2023-05-04T10:51:28.082Z,29.41
2023-05-04T10:52:24.701Z,29.53
2023-05-04T10:53:24.853Z,29.57
2023-05-04T10:54:23.972Z,29.71
2023-05-04T10:55:24.400Z,29.77
2023-05-04T10:56:24.494Z,29.79
2023-05-04T10:57:24.518Z,29.86
2023-05-04T10:58:24.501Z,29.93
2023-05-04T10:59:24.481Z,29.88
2023-05-04T11:00:25.164Z,29.95
2023-05-04T11:01:24.139Z,30.08
2023-05-04T11:02:24.448Z,30.29
2023-05-04T11:03:24.487Z,30.29
2023-05-04T11:04:23.770Z,30.12
2023-05-04T11:05:24.537Z,30.18
2023-05-04T11:06:24.472Z,30.06
2023-05-04T11:07:24.214Z,30.04
2023-05-04T11:08:24.234Z,30.04
2023-05-04T11:09:24.239Z,30.04
2023-05-04T11:10:24.014Z,30.01
2023-05-04T11:11:23.968Z,30.05
2023-05-04T11:12:28.778Z,30.10
2023-05-04T11:13:23.945Z,30.37
2023-05-04T11:14:23.988Z,30.34
2023-05-04T11:15:24.014Z,30.29
2023-05-04T11:16:24.187Z,30.31
2023-05-04T11:17:28.189Z,30.27
2023-05-04T11:18:32.013Z,30.34
2023-05-04T11:19:23.945Z,30.41
2023-05-04T11:20:23.916Z,30.40
2023-05-04T11:21:23.717Z,30.32
2023-05-04T11:22:24.148Z,30.45
2023-05-04T11:23:24.324Z,30.56
2023-05-04T11:24:24.373Z,30.56
2023-05-04T11:25:24.269Z,30.45
2023-05-04T11:26:23.901Z,30.45
2023-05-04T11:27:23.753Z,30.52
2023-05-04T11:28:23.892Z,30.67
2023-05-04T11:29:23.841Z,30.70
2023-05-04T11:30:24.245Z,30.63
2023-05-04T11:31:24.449Z,30.56
2023-05-04T11:32:38.522Z,30.51
2023-05-04T11:33:24.484Z,30.5
2023-05-04T11:34:24.248Z,30.53
2023-05-04T11:35:24.322Z,30.61
2023-05-04T11:36:24.073Z,30.71
2023-05-04T11:37:24.136Z,30.78
2023-05-04T11:38:24.011Z,30.77
2023-05-04T11:39:23.888Z,30.89
2023-05-04T11:40:24.072Z,30.94
2023-05-04T11:41:24.308Z,30.89
2023-05-04T11:42:23.950Z,30.89
2023-05-04T11:43:24.078Z,30.89
2023-05-04T11:44:23.848Z,31.11
2023-05-04T11:45:24.341Z,31.10
2023-05-04T11:46:24.103Z,31.11
2023-05-04T11:47:24.126Z,31.17
2023-05-04T11:48:24.340Z,31.07
2023-05-04T11:49:24.363Z,31.07
2023-05-04T11:50:24.481Z,31.06
2023-05-04T11:51:24.256Z,31.09
2023-05-04T11:52:24.442Z,31.12
2023-05-04T11:53:24.390Z,31.13
2023-05-04T11:54:24.414Z,31.24
2023-05-04T11:55:24.339Z,31.42
2023-05-04T11:56:24.079Z,31.45
2023-05-04T11:57:24.083Z,31.39
2023-05-04T11:58:23.996Z,31.40
2023-05-04T11:59:24.240Z,31.46
2023-05-04T12:00:24.823Z,31.42
2023-05-04T12:01:24.294Z,31.42
2023-05-04T12:02:24.088Z,31.36
2023-05-04T12:03:25.929Z,31.45
2023-05-04T12:04:23.933Z,31.45
2023-05-04T12:05:23.727Z,31.52
2023-05-04T12:06:23.927Z,31.5
2023-05-04T12:07:24.080Z,31.52
2023-05-04T12:08:23.877Z,31.52
2023-05-04T12:09:24.062Z,31.60
2023-05-04T12:10:24.441Z,31.64
2023-05-04T12:11:24.264Z,31.60
2023-05-04T12:12:23.933Z,31.64
2023-05-04T12:13:23.762Z,31.62
2023-05-04T12:14:23.994Z,31.67
2023-05-04T12:15:24.437Z,31.76
2023-05-04T12:16:24.311Z,31.85
2023-05-04T12:17:24.452Z,31.95
2023-05-04T12:18:24.504Z,31.87
2023-05-04T12:19:24.346Z,31.88
2023-05-04T12:20:24.342Z,31.95
2023-05-04T12:21:24.130Z,32.09
2023-05-04T12:22:24.218Z,32.19
2023-05-04T12:23:24.282Z,32.19
2023-05-04T12:25:28.590Z,32.25
2023-05-04T12:26:24.531Z,32.27
2023-05-04T12:27:24.467Z,32.33
2023-05-04T12:28:24.249Z,32.40
2023-05-04T12:29:23.913Z,32.41
2023-05-04T12:30:23.989Z,32.48
2023-05-04T12:31:25.145Z,32.60
2023-05-04T12:32:23.891Z,32.72
2023-05-04T12:33:24.354Z,32.79
2023-05-04T12:34:24.851Z,32.68
2023-05-04T12:35:24.547Z,32.64
2023-05-04T12:36:24.481Z,32.69
2023-05-04T12:37:25.144Z,32.74
2023-05-04T12:38:24.376Z,32.80
2023-05-04T12:39:24.621Z,32.91
2023-05-04T12:40:28.737Z,32.92
2023-05-04T12:41:24.081Z,32.89
2023-05-04T12:42:23.988Z,33.00
2023-05-04T12:43:23.650Z,33.02
2023-05-04T12:44:23.865Z,33.11
2023-05-04T12:45:24.723Z,33.30
2023-05-04T12:46:24.117Z,33.14
2023-05-04T12:47:24.455Z,33.13
2023-05-04T12:48:24.496Z,33.25
2023-05-04T12:49:24.891Z,33.09
2023-05-04T12:50:24.072Z,33.05
2023-05-04T12:51:24.441Z,33.10
2023-05-04T12:52:24.468Z,33.09
2023-05-04T12:53:23.872Z,33.13
2023-05-04T12:54:24.117Z,33.22
2023-05-04T12:55:25.646Z,33.25
2023-05-04T12:56:24.066Z,33.35